createdAt,value
2023-11-26T00:48:15.836Z,17.3
2023-11-26T00:58:18.304Z,17.3
2023-11-26T01:18:23.019Z,17.3
2023-11-26T01:28:24.472Z,17.2
2023-11-26T02:18:35.214Z,17.2
2023-11-26T02:28:37.785Z,17.2
2023-11-26T02:48:41.902Z,17.2
2023-11-26T02:58:44.106Z,17.2
2023-11-26T03:38:53.399Z,17.1
2023-11-26T03:48:55.611Z,17.1
2023-11-26T03:58:57.782Z,17.1
2023-11-26T08:09:53.833Z,17.3
2023-11-26T08:50:02.880Z,17.4
2023-11-26T09:00:05.281Z,17.4
2023-11-26T09:10:07.825Z,17.4
2023-11-26T09:20:09.704Z,17.5
2023-11-26T09:30:12.228Z,17.6
2023-11-26T09:40:14.780Z,17.8
2023-11-26T09:50:16.633Z,18
2023-11-26T10:00:18.673Z,18
2023-11-26T10:10:20.908Z,18
2023-11-26T10:20:22.675Z,17.9
2023-11-26T10:30:24.862Z,18
2023-11-26T10:40:26.805Z,18
2023-11-26T10:50:29.292Z,18.1
2023-11-26T11:00:31.866Z,18.2
2023-11-26T11:10:33.618Z,18.3
2023-11-26T11:20:35.869Z,18.3
2023-11-26T11:30:38.498Z,18.4
2023-11-26T11:40:40.971Z,18.4
2023-11-26T11:50:43.288Z,18.4
2023-11-26T12:00:45.457Z,18.4
2023-11-26T12:10:47.267Z,18.4
2023-11-26T12:20:49.058Z,18.4
2023-11-26T12:30:51.534Z,18.4
2023-11-26T12:40:54.043Z,18.4
2023-11-26T12:50:56.697Z,18.3
2023-11-26T13:00:58.938Z,18.3
2023-11-26T13:21:03.883Z,18.2
2023-11-26T13:31:05.905Z,18.2
2023-11-26T13:41:07.655Z,18.1
2023-11-26T14:51:22.029Z,17.9
2023-11-26T15:01:24.406Z,17.9
2023-11-26T15:11:26.345Z,17.9
2023-11-26T15:21:28.384Z,17.9
2023-11-26T15:31:30.480Z,17.8
2023-11-26T15:41:32.512Z,17.8
2023-11-26T15:51:34.483Z,17.8
2023-11-26T16:01:36.927Z,17.8
2023-11-26T16:11:38.975Z,17.7
2023-11-26T16:21:40.839Z,17.7
2023-11-26T16:31:49.947Z,17.7
2023-11-26T16:41:52.543Z,17.7
2023-11-26T16:51:55.124Z,17.7
2023-11-26T17:12:00.294Z,17.7
2023-11-26T17:22:02.962Z,17.7
2023-11-26T17:32:05.163Z,17.6
2023-11-26T17:52:10.290Z,17.6
2023-11-26T18:12:14.231Z,17.6
2023-11-26T18:22:16.862Z,17.6
2023-11-26T18:42:20.964Z,17.6
2023-11-26T18:52:22.708Z,17.6
2023-11-26T19:02:24.870Z,17.6
2023-11-26T19:12:26.614Z,17.6
2023-11-26T20:22:41.992Z,17.6
2023-11-26T20:32:44.349Z,17.6
2023-11-26T20:42:46.263Z,17.6
2023-11-26T20:52:48.561Z,17.6
2023-11-26T21:02:50.783Z,17.6
2023-11-26T21:53:01.241Z,17.5
2023-11-26T22:03:03.328Z,17.5
2023-11-26T22:13:05.968Z,17.5
2023-11-26T22:23:07.924Z,17.5
2023-11-26T22:33:10.120Z,17.5
2023-11-26T22:53:14.467Z,17.5
2023-11-26T23:03:17.014Z,17.5
2023-11-26T23:13:21.531Z,17.4
2023-11-26T23:23:29.992Z,17.4
2023-11-26T23:33:23.081Z,17.4
2023-11-26T23:43:25.368Z,17.4
2023-11-26T23:53:27.920Z,17.4
